createdAt,value
2023-01-06T00:01:18.126Z,4.35
2023-01-06T00:03:49.636Z,4.85
2023-01-06T00:06:16.089Z,4.72
2023-01-06T00:08:48.881Z,5.13
2023-01-06T00:11:15.839Z,4.47
2023-01-06T00:13:42.396Z,4.97
2023-01-06T00:16:12.247Z,4.07
2023-01-06T00:18:39.312Z,5.30
2023-01-06T00:21:06.602Z,5.00
2023-01-06T00:23:34.049Z,4.60
2023-01-06T00:26:04.454Z,4.82
2023-01-06T00:28:31.110Z,4.80
2023-01-06T00:30:57.764Z,4.50
2023-01-06T00:33:24.895Z,4.40
2023-01-06T00:35:51.764Z,4.40
2023-01-06T00:38:22.182Z,4.68
2023-01-06T00:40:48.623Z,4.43
2023-01-06T00:43:20.989Z,3.92
2023-01-06T00:45:47.436Z,3.35
2023-01-06T00:48:14.103Z,3.03
2023-01-06T00:50:40.606Z,3.40
2023-01-06T00:53:07.698Z,3.38
2023-01-06T00:55:37.130Z,3.15
2023-01-06T00:58:03.616Z,3.17
2023-01-06T01:00:30.088Z,2.78
2023-01-06T01:02:56.674Z,2.97
2023-01-06T01:05:23.201Z,3.10
2023-01-06T01:07:49.719Z,3.20
2023-01-06T01:10:16.321Z,3.03
2023-01-06T01:12:42.839Z,3.38
2023-01-06T01:15:09.811Z,3.00
2023-01-06T01:17:36.288Z,3.28
2023-01-06T01:20:02.868Z,2.33
2023-01-06T01:22:30.729Z,2.30
2023-01-06T01:24:57.344Z,1.80
2023-01-06T01:27:26.625Z,1.67
2023-01-06T01:29:53.164Z,1.60
2023-01-06T01:32:20.048Z,1.38
2023-01-06T01:34:49.845Z,1.60
2023-01-06T01:37:16.330Z,1.85
2023-01-06T01:39:42.957Z,1.85
2023-01-06T01:42:17.904Z,1.70
2023-01-06T01:44:56.249Z,2.10
2023-01-06T01:47:30.440Z,2.17
2023-01-06T01:50:07.302Z,1.95
2023-01-06T01:52:34.891Z,2.08
2023-01-06T01:55:02.815Z,2.35
2023-01-06T01:57:45.709Z,2.10
2023-01-06T02:00:12.539Z,2.40
2023-01-06T02:02:39.839Z,2.65
2023-01-06T02:05:07.866Z,2.03
2023-01-06T02:07:34.405Z,2.30
2023-01-06T02:10:12.962Z,2.25
2023-01-06T02:12:41.242Z,2.00
2023-01-06T02:15:26.445Z,1.95
2023-01-06T02:18:07.998Z,1.80
2023-01-06T02:20:50.051Z,1.75
2023-01-06T02:23:47.122Z,1.58
2023-01-06T02:26:13.558Z,1.80
2023-01-06T02:29:25.041Z,1.92
2023-01-06T02:32:10.113Z,1.70
2023-01-06T02:34:55.727Z,1.73
2023-01-06T02:37:47.798Z,1.70
2023-01-06T02:40:45.322Z,1.98
2023-01-06T02:43:26.412Z,2.30
2023-01-06T02:45:57.739Z,2.10
2023-01-06T02:48:50.410Z,1.85
2023-01-06T02:51:24.523Z,1.80
2023-01-06T02:54:17.216Z,1.63
2023-01-06T02:56:54.621Z,1.77
2023-01-06T02:59:29.775Z,1.63
2023-01-06T03:01:59.341Z,1.63
2023-01-06T03:04:31.688Z,1.40
2023-01-06T03:07:02.376Z,1.50
2023-01-06T03:09:33.580Z,1.50
2023-01-06T03:12:06.669Z,1.30
2023-01-06T03:14:38.737Z,1.33
2023-01-06T03:17:05.380Z,1.30
2023-01-06T03:19:32.400Z,1.30
2023-01-06T03:22:00.554Z,1.30
2023-01-06T03:24:27.339Z,1.35
2023-01-06T03:26:54.004Z,1.42
2023-01-06T03:29:22.181Z,1.48
2023-01-06T03:32:01.821Z,1.50
2023-01-06T03:34:50.053Z,1.20
2023-01-06T03:37:40.478Z,1.60
2023-01-06T03:40:19.225Z,1.63
2023-01-06T03:43:16.321Z,1.40
2023-01-06T03:46:01.188Z,1.40
2023-01-06T03:49:02.667Z,1.20
2023-01-06T03:52:06.489Z,1.23
2023-01-06T03:54:55.008Z,1.40
2023-01-06T03:57:33.325Z,1.73
2023-01-06T04:00:19.096Z,1.50
2023-01-06T04:02:46.811Z,1.50
2023-01-06T04:05:14.890Z,1.50
2023-01-06T04:07:42.371Z,1.30
2023-01-06T04:10:10.377Z,1.52
2023-01-06T04:12:39.852Z,1.20
2023-01-06T04:15:08.559Z,1.17
2023-01-06T04:17:35.504Z,1.00
2023-01-06T04:20:02.802Z,1.15
2023-01-06T04:22:29.340Z,1.35
2023-01-06T04:24:55.808Z,1.20
2023-01-06T04:27:22.292Z,1.20
2023-01-06T04:29:48.796Z,1.20
2023-01-06T04:32:15.290Z,1.15
2023-01-06T04:34:41.909Z,1.17
2023-01-06T04:37:08.382Z,1.23
2023-01-06T04:39:34.897Z,1.48
2023-01-06T04:42:01.727Z,1.45
2023-01-06T04:44:28.251Z,1.70
2023-01-06T04:46:54.687Z,1.45
2023-01-06T04:49:21.238Z,1.40
2023-01-06T04:51:47.728Z,1.60
2023-01-06T04:54:14.220Z,1.67
2023-01-06T04:56:40.717Z,2.08
2023-01-06T04:59:07.224Z,1.83
2023-01-06T05:01:33.892Z,1.95
2023-01-06T05:04:00.446Z,1.45
2023-01-06T05:06:26.980Z,1.90
2023-01-06T05:08:53.507Z,1.58
2023-01-06T05:11:22.486Z,1.48
2023-01-06T05:13:49.609Z,2.10
2023-01-06T05:16:20.024Z,1.63
2023-01-06T05:18:46.695Z,1.80
2023-01-06T05:21:13.276Z,1.70
2023-01-06T05:23:40.675Z,2.03
2023-01-06T05:26:07.859Z,1.70
2023-01-06T05:28:34.869Z,1.70
2023-01-06T05:31:02.808Z,1.95
2023-01-06T05:33:29.494Z,2.10
2023-01-06T05:36:07.817Z,1.60
2023-01-06T05:38:34.520Z,1.45
2023-01-06T05:41:01.404Z,1.40
2023-01-06T05:43:28.304Z,1.30
2023-01-06T05:45:55.848Z,1.20
2023-01-06T05:48:27.820Z,1.50
2023-01-06T05:51:01.254Z,1.30
2023-01-06T05:53:31.006Z,1.45
2023-01-06T05:56:02.961Z,1.30
2023-01-06T06:00:56.142Z,1.27
2023-01-06T06:03:22.628Z,1.27
2023-01-06T06:05:49.126Z,1.38
2023-01-06T06:08:15.875Z,1.00
2023-01-06T06:10:42.354Z,1.45
2023-01-06T06:13:09.200Z,1.27
2023-01-06T06:15:35.787Z,1.38
2023-01-06T06:18:03.306Z,1.25
2023-01-06T06:20:30.391Z,1.42
2023-01-06T06:22:56.903Z,1.92
2023-01-06T06:25:23.437Z,2.10
2023-01-06T06:27:49.944Z,2.40
2023-01-06T06:30:25.780Z,2.38
2023-01-06T06:32:52.411Z,3.00
2023-01-06T06:35:19.032Z,2.63
2023-01-06T06:37:45.568Z,2.63
2023-01-06T06:40:12.424Z,2.97
2023-01-06T06:42:38.930Z,2.88
2023-01-06T06:45:06.011Z,2.80
2023-01-06T06:47:32.482Z,2.83
2023-01-06T06:49:58.962Z,2.55
2023-01-06T06:52:25.448Z,2.50
2023-01-06T06:54:51.992Z,2.40
2023-01-06T06:57:18.477Z,3.20
2023-01-06T06:59:44.922Z,2.80
2023-01-06T07:02:11.528Z,3.00
2023-01-06T07:04:41.645Z,2.67
2023-01-06T07:07:08.108Z,3.05
2023-01-06T07:09:34.583Z,2.65
2023-01-06T07:12:01.109Z,2.58
2023-01-06T07:14:27.596Z,2.60
2023-01-06T07:16:54.033Z,2.92
2023-01-06T07:19:20.583Z,3.08
2023-01-06T07:21:47.022Z,3.00
2023-01-06T07:24:16.928Z,3.15
2023-01-06T07:26:43.403Z,2.70
2023-01-06T07:29:09.871Z,3.33
2023-01-06T07:31:36.408Z,3.28
2023-01-06T07:34:02.945Z,2.70
2023-01-06T07:36:29.415Z,3.33
2023-01-06T07:38:55.906Z,3.67
2023-01-06T07:41:22.370Z,3.40
2023-01-06T07:43:48.875Z,3.05
2023-01-06T07:46:15.366Z,3.88
2023-01-06T07:48:41.868Z,3.40
2023-01-06T07:51:08.366Z,3.15
2023-01-06T07:53:35.101Z,3.17
2023-01-06T07:56:01.660Z,2.97
2023-01-06T07:58:28.356Z,2.47
2023-01-06T08:00:54.846Z,2.80
2023-01-06T08:03:21.448Z,2.42
2023-01-06T08:05:47.989Z,2.33
2023-01-06T08:08:14.483Z,2.53
2023-01-06T08:10:42.164Z,2.55
2023-01-06T08:13:09.515Z,2.28
2023-01-06T08:15:37.563Z,2.10
2023-01-06T08:18:04.343Z,2.17
2023-01-06T08:20:30.793Z,1.55
2023-01-06T08:23:01.842Z,2.05
2023-01-06T08:25:28.359Z,1.40
2023-01-06T08:27:54.844Z,1.90
2023-01-06T08:30:21.890Z,1.90
2023-01-06T08:32:49.489Z,1.63
2023-01-06T08:35:16.265Z,1.80
2023-01-06T08:37:43.013Z,1.50
2023-01-06T08:40:10.996Z,1.52
2023-01-06T08:42:37.466Z,1.65
2023-01-06T08:45:05.793Z,1.55
2023-01-06T08:47:32.221Z,1.70
2023-01-06T08:49:58.744Z,1.63
2023-01-06T08:52:25.361Z,1.58
2023-01-06T08:54:51.893Z,1.90
2023-01-06T08:57:18.427Z,1.70
2023-01-06T08:59:44.984Z,1.48
2023-01-06T09:02:11.703Z,1.65
2023-01-06T09:04:38.424Z,1.75
2023-01-06T09:07:04.914Z,1.88
2023-01-06T09:09:31.360Z,1.75
2023-01-06T09:11:58.168Z,1.80
2023-01-06T09:14:24.971Z,1.70
2023-01-06T09:16:51.668Z,1.60
2023-01-06T09:19:20.408Z,1.65
2023-01-06T09:21:47.040Z,1.70
2023-01-06T09:24:14.840Z,1.48
2023-01-06T09:26:41.437Z,1.70
2023-01-06T09:29:07.945Z,1.80
2023-01-06T09:31:34.597Z,1.67
2023-01-06T09:34:01.088Z,1.88
2023-01-06T09:36:27.717Z,1.38
2023-01-06T09:38:54.230Z,1.77
2023-01-06T09:41:52.577Z,1.60
2023-01-06T09:44:24.640Z,1.92
2023-01-06T09:46:52.244Z,2.03
2023-01-06T09:49:33.947Z,1.90
2023-01-06T09:52:04.995Z,1.83
2023-01-06T09:54:34.972Z,1.60
2023-01-06T09:57:11.904Z,1.63
2023-01-06T09:59:56.883Z,1.25
2023-01-06T10:02:30.003Z,1.27
2023-01-06T10:04:56.552Z,1.35
2023-01-06T10:07:35.270Z,1.25
2023-01-06T10:10:30.646Z,1.40
2023-01-06T10:13:19.283Z,1.30
2023-01-06T10:16:03.807Z,1.20
2023-01-06T10:18:35.110Z,1.20
2023-01-06T10:21:12.968Z,1.25
2023-01-06T10:23:39.386Z,1.50
2023-01-06T10:26:30.234Z,1.15
2023-01-06T10:29:18.197Z,1.40
2023-01-06T10:31:47.311Z,1.10
2023-01-06T10:34:20.973Z,1.40
2023-01-06T10:36:54.768Z,1.33
2023-01-06T10:39:25.272Z,1.10
2023-01-06T10:42:28.516Z,1.17
2023-01-06T10:44:54.978Z,0.93
2023-01-06T10:47:29.831Z,1.10
2023-01-06T10:49:56.879Z,1.10
2023-01-06T10:52:25.512Z,1.10
2023-01-06T10:54:55.790Z,1.15
2023-01-06T10:57:26.882Z,0.98
2023-01-06T11:00:08.522Z,0.90
2023-01-06T11:02:35.155Z,1.00
2023-01-06T11:05:02.491Z,0.98
2023-01-06T11:07:30.144Z,1.00
2023-01-06T11:09:57.752Z,0.80
2023-01-06T11:12:27.162Z,0.73
2023-01-06T11:15:06.761Z,0.93
2023-01-06T11:17:33.464Z,0.70
2023-01-06T11:20:26.662Z,0.90
2023-01-06T11:22:53.099Z,1.10
2023-01-06T11:25:19.523Z,0.90
2023-01-06T11:28:10.197Z,0.98
2023-01-06T11:30:53.682Z,0.80
2023-01-06T11:33:24.249Z,0.80
2023-01-06T11:35:51.439Z,0.70
2023-01-06T11:38:20.979Z,1.00
2023-01-06T11:40:49.834Z,0.90
2023-01-06T11:43:22.351Z,1.00
2023-01-06T11:45:57.753Z,0.90
2023-01-06T11:48:36.194Z,1.02
2023-01-06T11:51:05.401Z,0.98
2023-01-06T11:53:34.302Z,1.00
2023-01-06T11:56:06.599Z,1.10
2023-01-06T11:59:00.280Z,0.90
2023-01-06T12:01:39.045Z,0.88
2023-01-06T12:04:14.348Z,1.13
2023-01-06T12:06:43.185Z,1.13
2023-01-06T12:09:38.882Z,1.08
2023-01-06T12:12:09.143Z,1.10
2023-01-06T12:14:37.810Z,0.95
2023-01-06T12:17:13.172Z,0.80
2023-01-06T12:20:00.484Z,1.17
2023-01-06T12:22:46.909Z,1.00
2023-01-06T12:25:20.777Z,0.95
2023-01-06T12:27:47.680Z,0.95
2023-01-06T12:30:20.970Z,1.17
2023-01-06T12:32:49.924Z,1.10
2023-01-06T12:35:25.112Z,0.90
2023-01-06T12:37:59.365Z,1.00
2023-01-06T12:41:04.665Z,0.90
2023-01-06T12:43:37.493Z,1.00
2023-01-06T12:46:11.275Z,0.93
2023-01-06T12:48:48.239Z,1.27
2023-01-06T12:51:25.884Z,1.23
2023-01-06T12:54:12.249Z,1.45
2023-01-06T12:56:58.866Z,1.67
2023-01-06T13:00:06.703Z,1.92
2023-01-06T13:03:04.316Z,1.95
2023-01-06T13:05:48.880Z,1.80
2023-01-06T13:08:39.647Z,1.95
2023-01-06T13:11:37.124Z,1.90
2023-01-06T13:14:20.062Z,1.67
2023-01-06T13:16:57.721Z,2.25
2023-01-06T13:19:39.359Z,2.20
2023-01-06T13:22:09.953Z,2.40
2023-01-06T13:25:03.703Z,2.10
2023-01-06T13:27:37.444Z,2.15
2023-01-06T13:30:25.716Z,2.20
2023-01-06T13:33:13.505Z,1.92
2023-01-06T13:35:58.059Z,2.38
2023-01-06T13:38:50.072Z,2.35
2023-01-06T13:41:20.677Z,2.38
2023-01-06T13:43:49.288Z,2.22
2023-01-06T13:46:20.112Z,2.30
2023-01-06T13:48:52.414Z,2.70
2023-01-06T13:51:22.887Z,2.75
2023-01-06T13:53:50.383Z,2.83
2023-01-06T13:56:16.775Z,2.95
2023-01-06T13:58:44.842Z,3.15
2023-01-06T14:01:20.278Z,3.00
2023-01-06T14:03:49.531Z,2.90
2023-01-06T14:06:21.955Z,2.90
2023-01-06T14:08:53.913Z,2.83
2023-01-06T14:14:07.825Z,3.10
2023-01-06T14:16:40.393Z,2.80
2023-01-06T14:19:15.281Z,3.05
2023-01-06T14:21:42.628Z,3.13
2023-01-06T14:24:34.707Z,2.70
2023-01-06T14:27:04.807Z,3.03
2023-01-06T14:29:43.441Z,2.70
2023-01-06T14:32:14.176Z,3.10
2023-01-06T14:34:54.426Z,3.00
2023-01-06T14:37:26.469Z,3.05
2023-01-06T14:42:29.926Z,2.85
2023-01-06T14:45:00.390Z,2.95
2023-01-06T14:47:47.375Z,3.20
2023-01-06T14:50:41.890Z,3.05
2023-01-06T14:53:21.488Z,3.78
2023-01-06T14:55:49.787Z,3.70
2023-01-06T14:58:29.625Z,3.53
2023-01-06T15:00:56.482Z,7.13
2023-01-06T15:03:24.393Z,8.02
2023-01-06T15:05:51.047Z,5.22
2023-01-06T15:08:18.964Z,7.43
2023-01-06T15:10:48.310Z,4.68
2023-01-06T15:13:24.835Z,6.22
2023-01-06T15:16:05.903Z,3.85
2023-01-06T15:18:35.093Z,7.88
2023-01-06T15:21:03.212Z,9.02
2023-01-06T15:23:29.798Z,7.38
2023-01-06T15:25:56.736Z,10.60
2023-01-06T15:28:33.966Z,4.90
2023-01-06T15:31:04.240Z,13.38
2023-01-06T15:33:38.554Z,11.93
2023-01-06T15:36:06.539Z,6.78
2023-01-06T15:38:35.076Z,5.38
2023-01-06T15:41:04.523Z,6.85
2023-01-06T15:43:45.819Z,14.15
2023-01-06T15:46:13.027Z,7.97
2023-01-06T15:48:48.921Z,6.15
2023-01-06T15:51:17.567Z,9.25
2023-01-06T15:53:45.838Z,8.05
2023-01-06T15:56:24.667Z,9.15
2023-01-06T15:58:53.560Z,8.88
2023-01-06T16:01:23.997Z,8.70
2023-01-06T16:03:55.954Z,9.15
2023-01-06T16:06:31.462Z,7.72
2023-01-06T16:09:27.360Z,7.97
2023-01-06T16:11:58.382Z,6.07
2023-01-06T16:14:36.773Z,5.57
2023-01-06T16:17:10.703Z,4.88
2023-01-06T16:19:49.366Z,5.47
2023-01-06T16:22:47.979Z,5.15
2023-01-06T16:25:29.019Z,4.80
2023-01-06T16:27:58.633Z,6.00
2023-01-06T16:30:27.593Z,5.50
2023-01-06T16:32:56.483Z,5.32
2023-01-06T16:35:25.697Z,5.65
2023-01-06T16:37:52.936Z,5.75
2023-01-06T16:40:22.301Z,5.45
2023-01-06T16:42:49.789Z,5.80
2023-01-06T16:45:35.267Z,5.82
2023-01-06T16:48:01.815Z,7.68
2023-01-06T16:50:37.030Z,6.07
2023-01-06T16:53:16.228Z,5.55
2023-01-06T16:55:46.263Z,5.82
2023-01-06T16:58:25.280Z,5.53
2023-01-06T17:00:54.390Z,5.78
2023-01-06T17:03:28.716Z,36.38
2023-01-06T17:05:55.546Z,11.95
2023-01-06T17:08:28.373Z,18.98
2023-01-06T17:10:55.165Z,6.88
2023-01-06T17:13:36.975Z,6.15
2023-01-06T17:16:09.687Z,6.10
2023-01-06T17:18:46.180Z,6.72
2023-01-06T17:21:22.338Z,6.15
2023-01-06T17:23:58.874Z,6.63
2023-01-06T17:26:27.573Z,5.80
2023-01-06T17:28:57.007Z,5.88
2023-01-06T17:31:31.668Z,5.68
2023-01-06T17:34:09.218Z,5.45
2023-01-06T17:36:38.472Z,6.60
2023-01-06T17:39:27.067Z,5.20
2023-01-06T17:42:11.793Z,4.75
2023-01-06T17:44:47.157Z,4.75
2023-01-06T17:47:17.516Z,4.90
2023-01-06T17:49:47.734Z,5.55
2023-01-06T17:52:16.899Z,4.93
2023-01-06T17:55:10.523Z,4.75
2023-01-06T17:57:40.143Z,4.65
2023-01-06T18:00:21.933Z,4.65
2023-01-06T18:03:24.688Z,3.90
2023-01-06T18:05:59.973Z,7.38
2023-01-06T18:08:27.346Z,5.57
2023-01-06T18:11:02.260Z,5.13
2023-01-06T18:13:36.671Z,3.92
2023-01-06T18:16:09.425Z,3.78
2023-01-06T18:18:38.544Z,4.18
2023-01-06T18:21:16.999Z,4.25
2023-01-06T18:23:47.604Z,4.00
2023-01-06T18:26:26.347Z,3.47
2023-01-06T18:29:01.753Z,3.35
2023-01-06T18:31:34.505Z,3.40
2023-01-06T18:34:17.562Z,3.10
2023-01-06T18:36:46.582Z,3.30
2023-01-06T18:39:14.329Z,3.33
2023-01-06T18:41:40.768Z,2.80
2023-01-06T18:44:18.361Z,5.32
2023-01-06T18:46:44.904Z,3.42
2023-01-06T18:49:14.903Z,6.38
2023-01-06T18:51:42.329Z,4.38
2023-01-06T18:54:22.955Z,4.70
2023-01-06T18:56:51.418Z,4.20
2023-01-06T18:59:21.219Z,4.13
2023-01-06T19:01:52.661Z,3.83
2023-01-06T19:04:31.234Z,3.60
2023-01-06T19:07:24.953Z,3.80
2023-01-06T19:09:51.466Z,3.85
2023-01-06T19:12:30.339Z,3.80
2023-01-06T19:15:01.543Z,4.97
2023-01-06T19:17:31.091Z,4.00
2023-01-06T19:20:01.006Z,4.00
2023-01-06T19:22:36.177Z,3.92
2023-01-06T19:25:13.242Z,9.15
2023-01-06T19:27:39.706Z,4.97
2023-01-06T19:30:24.957Z,22.15
2023-01-06T19:32:51.417Z,6.55
2023-01-06T19:35:29.234Z,10.50
2023-01-06T19:38:09.526Z,4.30
2023-01-06T19:40:44.715Z,3.40
2023-01-06T19:43:21.651Z,5.40
2023-01-06T19:45:48.214Z,11.65
2023-01-06T19:48:23.637Z,7.53
2023-01-06T19:50:59.795Z,5.95
2023-01-06T19:53:42.308Z,5.28
2023-01-06T19:56:19.351Z,8.95
2023-01-06T19:58:56.519Z,4.95
2023-01-06T20:01:23.867Z,4.47
2023-01-06T20:03:57.174Z,4.85
2023-01-06T20:06:27.459Z,5.40
2023-01-06T20:08:54.010Z,5.35
2023-01-06T20:11:22.429Z,13.77
2023-01-06T20:13:49.145Z,6.45
2023-01-06T20:16:16.184Z,4.70
2023-01-06T20:18:42.691Z,3.95
2023-01-06T20:21:09.250Z,3.60
2023-01-06T20:23:35.701Z,4.75
2023-01-06T20:26:02.202Z,4.05
2023-01-06T20:28:28.744Z,3.25
2023-01-06T20:30:55.253Z,3.47
2023-01-06T20:33:21.786Z,3.65
2023-01-06T20:35:48.238Z,3.22
2023-01-06T20:38:14.726Z,3.30
2023-01-06T20:40:41.197Z,3.20
2023-01-06T20:43:07.718Z,3.22
2023-01-06T20:45:34.713Z,3.33
2023-01-06T20:48:01.639Z,2.95
2023-01-06T20:50:28.192Z,2.90
2023-01-06T20:52:55.143Z,3.28
2023-01-06T20:55:21.653Z,4.50
2023-01-06T20:57:48.231Z,2.80
2023-01-06T21:00:15.508Z,2.35
2023-01-06T21:02:45.641Z,2.50
2023-01-06T21:05:12.333Z,2.30
2023-01-06T21:07:42.313Z,2.60
2023-01-06T21:10:09.107Z,2.72
2023-01-06T21:12:35.669Z,3.08
2023-01-06T21:15:02.301Z,2.80
2023-01-06T21:17:28.919Z,2.40
2023-01-06T21:19:55.517Z,2.60
2023-01-06T21:22:22.252Z,2.60
2023-01-06T21:24:49.000Z,2.50
2023-01-06T21:27:16.961Z,2.80
2023-01-06T21:29:44.855Z,2.55
2023-01-06T21:32:11.475Z,2.40
2023-01-06T21:34:38.636Z,2.70
2023-01-06T21:37:05.194Z,2.78
2023-01-06T21:39:32.541Z,2.05
2023-01-06T21:42:17.784Z,2.25
2023-01-06T21:44:44.514Z,2.40
2023-01-06T21:47:11.442Z,2.30
2023-01-06T21:49:41.652Z,2.40
2023-01-06T21:52:11.414Z,2.03
2023-01-06T21:54:37.871Z,2.25
2023-01-06T21:57:04.423Z,2.50
2023-01-06T21:59:31.591Z,2.42
2023-01-06T22:01:59.083Z,2.10
2023-01-06T22:04:25.929Z,2.33
2023-01-06T22:06:55.911Z,2.28
2023-01-06T22:09:23.532Z,2.50
2023-01-06T22:11:51.497Z,2.17
2023-01-06T22:14:18.570Z,2.47
2023-01-06T22:16:45.802Z,2.40
2023-01-06T22:19:13.771Z,2.20
2023-01-06T22:21:43.227Z,2.10
2023-01-06T22:24:12.308Z,2.15
2023-01-06T22:26:38.757Z,2.20
2023-01-06T22:29:07.845Z,2.10
2023-01-06T22:31:37.348Z,1.90
2023-01-06T22:34:06.493Z,2.13
2023-01-06T22:36:32.996Z,2.22
2023-01-06T22:38:59.500Z,2.25
2023-01-06T22:41:25.950Z,1.95
2023-01-06T22:43:52.458Z,2.20
2023-01-06T22:46:19.035Z,2.20
2023-01-06T22:48:45.882Z,2.10
2023-01-06T22:51:12.579Z,1.98
2023-01-06T22:53:39.205Z,2.10
2023-01-06T22:56:08.570Z,2.40
2023-01-06T22:58:37.259Z,2.20
2023-01-06T23:01:05.993Z,2.60
2023-01-06T23:03:33.485Z,2.50
2023-01-06T23:06:06.645Z,2.75
2023-01-06T23:08:34.716Z,2.72
2023-01-06T23:11:15.808Z,2.70
2023-01-06T23:13:44.067Z,2.70
2023-01-06T23:16:22.747Z,2.72
2023-01-06T23:18:49.986Z,2.70
2023-01-06T23:21:22.150Z,2.72
2023-01-06T23:23:50.151Z,2.75
2023-01-06T23:26:23.322Z,2.70
2023-01-06T23:28:51.379Z,2.75
2023-01-06T23:31:20.897Z,2.22
2023-01-06T23:33:50.220Z,2.55
2023-01-06T23:36:18.756Z,2.50
2023-01-06T23:39:04.607Z,2.00
2023-01-06T23:41:36.202Z,2.38
2023-01-06T23:44:03.940Z,2.28
2023-01-06T23:46:33.612Z,2.03
2023-01-06T23:49:00.196Z,2.50
2023-01-06T23:51:30.592Z,1.98
2023-01-06T23:54:01.974Z,2.13
2023-01-06T23:56:30.708Z,1.90
2023-01-06T23:58:59.380Z,1.70
